createdAt,value
2017-05-13T08:34:16.151Z,60.70
2017-05-13T08:36:44.650Z,60.30
2017-05-13T08:39:12.969Z,60.60
2017-05-13T08:41:41.282Z,61.80
2017-05-13T08:44:09.720Z,62.60
2017-05-13T08:46:38.975Z,62.40
2017-05-13T08:49:07.330Z,62.20
2017-05-13T08:51:35.958Z,62.30
2017-05-13T08:54:04.274Z,62.20
2017-05-13T08:56:32.585Z,62.00
2017-05-13T09:20:42.101Z,60.70
2017-05-13T09:23:10.453Z,60.90
2017-05-13T09:25:38.754Z,60.30
2017-05-13T09:28:07.214Z,59.50
2017-05-13T09:30:35.535Z,58.90
2017-05-13T09:33:04.617Z,59.20
2017-05-13T09:35:32.930Z,59.50
2017-05-13T09:38:01.253Z,59.00
2017-05-13T09:40:29.901Z,58.30
2017-05-13T09:42:58.219Z,57.80
2017-05-13T09:45:26.532Z,57.50
2017-05-13T09:47:55.589Z,57.20
2017-05-13T09:59:05.729Z,56.50
2017-05-13T10:01:34.033Z,56.20
2017-05-13T10:04:02.364Z,55.90
2017-05-13T10:06:31.714Z,56.20
2017-05-13T10:09:00.039Z,56.90
2017-05-13T10:11:28.393Z,56.80
2017-05-13T10:13:56.711Z,56.30
2017-05-13T10:16:25.065Z,56.30
2017-05-13T10:18:53.394Z,56.10
2017-05-13T10:21:21.741Z,56.20
2017-05-13T10:23:50.103Z,55.30
2017-05-13T10:26:18.414Z,55.20
2017-05-13T10:28:47.487Z,55.20
2017-05-13T10:31:16.042Z,54.90
2017-05-13T10:33:44.470Z,54.00
2017-05-13T10:36:12.786Z,53.80
2017-05-13T10:38:41.106Z,54.10
2017-05-13T10:41:09.510Z,54.20
2017-05-13T10:43:38.585Z,54.30
2017-05-13T10:46:06.898Z,54.00
2017-05-13T10:48:35.953Z,53.30
2017-05-13T10:51:04.341Z,53.10
2017-05-13T10:53:32.668Z,53.20
2017-05-13T10:56:00.991Z,53.20
2017-05-13T10:58:29.351Z,53.20
2017-05-13T11:00:57.669Z,53.40
2017-05-13T11:03:26.743Z,53.40
2017-05-13T11:05:55.207Z,53.70
2017-05-13T11:08:23.160Z,53.70
2017-05-13T11:10:51.514Z,53.60
2017-05-13T11:13:19.874Z,53.40
2017-05-13T11:15:48.942Z,53.40
2017-05-13T11:18:17.262Z,53.10
2017-05-13T11:20:45.694Z,53.10
2017-05-13T11:23:14.036Z,53.50
2017-05-13T11:25:42.362Z,53.60
2017-05-13T11:28:10.682Z,53.30
2017-05-13T11:30:38.996Z,53.50
2017-05-13T11:33:07.622Z,54.00
2017-05-13T11:35:35.983Z,54.00
2017-05-13T11:38:04.299Z,53.10
2017-05-13T11:40:33.358Z,52.60
2017-05-13T11:43:02.053Z,52.30
2017-05-13T11:45:30.374Z,52.50
2017-05-13T11:47:58.733Z,52.90
2017-05-13T11:50:27.838Z,52.50
2017-05-13T11:52:56.173Z,52.10
2017-05-13T11:55:24.498Z,51.90
2017-05-13T11:57:52.825Z,52.60
2017-05-13T12:00:21.501Z,52.10
2017-05-13T12:02:49.844Z,52.00
2017-05-13T12:05:18.161Z,51.40
2017-05-13T12:07:46.485Z,50.50
2017-05-13T12:10:15.536Z,50.20
2017-05-13T12:12:43.909Z,50.60
2017-05-13T12:15:12.223Z,50.70
2017-05-13T12:17:41.624Z,50.30
2017-05-13T12:20:09.953Z,49.60
2017-05-13T12:22:38.270Z,49.10
2017-05-13T12:25:06.605Z,49.30
2017-05-13T12:27:34.922Z,49.00
2017-05-13T12:30:03.426Z,48.70
2017-05-13T12:32:32.481Z,48.30
2017-05-13T12:35:00.800Z,48.50
2017-05-13T12:37:29.864Z,48.00
2017-05-13T12:39:58.186Z,48.10
2017-05-13T12:42:27.742Z,48.30
2017-05-13T12:44:56.054Z,48.00
2017-05-13T12:47:24.411Z,47.90
2017-05-13T12:49:52.724Z,47.50
2017-05-13T12:52:21.786Z,46.80
2017-05-13T12:54:50.108Z,46.70
2017-05-13T12:57:19.341Z,46.40
2017-05-13T12:59:47.653Z,46.10
2017-05-13T13:02:15.966Z,46.20
2017-05-13T13:04:44.450Z,45.80
2017-05-13T13:07:12.778Z,45.70
2017-05-13T13:09:41.109Z,46.00
2017-05-13T13:12:09.431Z,46.50
2017-05-13T13:14:37.751Z,46.10
2017-05-13T13:17:06.813Z,46.10
2017-05-13T13:19:35.274Z,46.60
2017-05-13T13:22:03.605Z,47.50
2017-05-13T13:24:32.670Z,48.50
2017-05-13T13:27:00.978Z,49.20
2017-05-13T13:29:30.030Z,49.40
2017-05-13T13:31:58.343Z,49.10
2017-05-13T13:34:27.410Z,48.40
2017-05-13T13:36:55.725Z,48.00
2017-05-13T13:39:24.779Z,47.70
2017-05-13T13:41:53.098Z,47.60
2017-05-13T13:44:24.926Z,47.60
2017-05-13T13:46:53.235Z,47.00
2017-05-13T13:49:22.283Z,46.20
2017-05-13T13:51:50.642Z,46.50
2017-05-13T13:54:18.998Z,46.60
2017-05-13T13:56:47.314Z,46.00
2017-05-13T13:59:15.630Z,45.90
2017-05-13T14:01:43.949Z,45.60
2017-05-13T14:04:12.271Z,45.80
2017-05-13T14:06:40.582Z,45.40
2017-05-13T14:09:12.886Z,45.30
2017-05-13T14:11:41.204Z,45.10
2017-05-13T14:14:09.566Z,44.80
2017-05-13T14:16:37.885Z,44.70
2017-05-13T14:19:10.672Z,44.40
2017-05-13T14:21:40.248Z,44.00
2017-05-13T14:24:08.570Z,43.20
2017-05-13T14:26:37.922Z,43.30
2017-05-13T14:29:06.247Z,43.30
2017-05-13T14:31:34.557Z,42.60
2017-05-13T14:34:02.911Z,42.50
2017-05-13T14:36:31.226Z,42.70
2017-05-13T14:38:59.539Z,43.10
2017-05-13T14:41:28.599Z,43.50
2017-05-13T14:43:57.226Z,43.50
2017-05-13T14:46:26.284Z,44.00
2017-05-13T14:48:54.599Z,44.20
2017-05-13T14:51:23.659Z,44.00
2017-05-13T14:53:51.971Z,44.00
2017-05-13T14:56:21.465Z,44.10
2017-05-13T14:58:49.785Z,43.80
2017-05-13T15:01:18.101Z,43.70
2017-05-13T15:03:46.416Z,43.40
2017-05-13T15:06:15.481Z,43.50
2017-05-13T15:08:43.795Z,43.50
2017-05-13T15:11:12.117Z,42.70
2017-05-13T15:13:40.582Z,42.20
2017-05-13T15:16:08.892Z,42.20
2017-05-13T15:18:37.973Z,42.50
2017-05-13T15:21:06.310Z,42.10
2017-05-13T15:23:34.625Z,42.50
2017-05-13T15:26:03.346Z,42.60
2017-05-13T15:28:31.674Z,42.40
2017-05-13T15:30:59.996Z,42.50
2017-05-13T15:33:28.309Z,42.50
2017-05-13T15:35:56.625Z,42.90
2017-05-13T15:38:24.941Z,42.80
2017-05-13T15:40:53.730Z,42.70
2017-05-13T15:43:22.786Z,42.70
2017-05-13T15:45:51.110Z,43.20
2017-05-13T15:48:20.173Z,43.70
2017-05-13T15:50:49.643Z,43.70
2017-05-13T15:53:17.970Z,43.50
2017-05-13T15:55:46.281Z,43.30
2017-05-13T15:58:15.371Z,43.40
2017-05-13T16:00:44.416Z,43.30
2017-05-13T16:03:12.728Z,43.00
2017-05-13T16:05:41.042Z,42.30
2017-05-13T16:08:09.359Z,41.40
2017-05-13T16:10:37.713Z,40.90
2017-05-13T16:13:06.021Z,40.20
2017-05-13T16:15:34.735Z,39.70
2017-05-13T16:18:03.802Z,39.00
2017-05-13T16:20:32.115Z,39.00
2017-05-13T16:23:01.186Z,39.30
2017-05-13T16:25:29.499Z,39.80
2017-05-13T16:27:58.401Z,40.50
2017-05-13T16:30:26.711Z,40.60
2017-05-13T16:32:55.023Z,40.40
2017-05-13T16:35:24.077Z,40.90
2017-05-13T16:37:52.396Z,40.70
2017-05-13T16:40:20.715Z,41.10
2017-05-13T16:42:49.082Z,41.40
2017-05-13T16:45:18.251Z,41.40
2017-05-13T16:47:46.562Z,41.90
2017-05-13T16:50:14.878Z,42.40
2017-05-13T16:52:43.195Z,42.80
2017-05-13T16:55:12.247Z,42.70
2017-05-13T16:57:40.562Z,42.60
2017-05-13T17:00:09.635Z,42.80
2017-05-13T17:02:43.154Z,43.60
2017-05-13T17:05:11.471Z,44.10
2017-05-13T17:07:39.788Z,44.40
2017-05-13T17:10:08.114Z,44.70
2017-05-13T17:12:36.428Z,45.10
2017-05-13T17:15:04.839Z,45.00
2017-05-13T17:17:33.149Z,45.30
2017-05-13T17:20:01.467Z,45.60
2017-05-13T17:22:29.838Z,45.10
2017-05-13T17:24:58.157Z,44.80
2017-05-13T17:27:26.469Z,44.70
2017-05-13T17:29:54.782Z,45.20
2017-05-13T17:32:23.160Z,45.50
2017-05-13T17:34:51.468Z,45.50
2017-05-13T17:37:19.807Z,45.80
2017-05-13T17:39:48.114Z,46.30
2017-05-13T17:42:16.417Z,46.40
2017-05-13T17:44:45.509Z,46.40
2017-05-13T17:47:14.875Z,46.70
2017-05-13T17:49:43.186Z,46.70
2017-05-13T17:52:11.546Z,47.10
2017-05-13T17:54:40.008Z,47.20
2017-05-13T17:57:08.314Z,47.60
2017-05-13T17:59:37.050Z,47.80
2017-05-13T18:02:05.505Z,48.00
2017-05-13T18:04:34.561Z,48.20
2017-05-13T18:07:02.869Z,48.50
2017-05-13T18:09:31.929Z,48.80
2017-05-13T18:12:00.294Z,49.10
2017-05-13T18:14:28.675Z,49.20
2017-05-13T18:16:57.002Z,49.60
2017-05-13T18:19:26.065Z,49.90
2017-05-13T18:21:54.386Z,50.10
2017-05-13T18:24:22.711Z,50.50
2017-05-13T18:26:51.346Z,50.80
2017-05-13T18:29:19.666Z,51.10
2017-05-13T18:31:47.981Z,51.60
2017-05-13T18:34:16.302Z,51.90
2017-05-13T18:36:45.981Z,52.00
2017-05-13T18:39:15.046Z,52.50
2017-05-13T18:41:43.362Z,52.70
2017-05-13T18:44:12.423Z,52.90
2017-05-13T18:46:40.873Z,53.10
2017-05-13T18:49:09.197Z,53.30
2017-05-13T18:51:37.530Z,53.50
2017-05-13T18:54:05.862Z,53.70
2017-05-13T18:56:34.929Z,53.80
2017-05-13T18:59:03.243Z,53.80
2017-05-13T19:01:32.301Z,54.00
2017-05-13T19:04:00.609Z,54.20
2017-05-13T19:06:30.010Z,54.40
2017-05-13T19:08:59.069Z,54.90
2017-05-13T19:11:27.394Z,54.90
2017-05-13T19:13:56.447Z,55.10
2017-05-13T19:16:24.762Z,55.60
2017-05-13T19:18:53.822Z,56.10
2017-05-13T19:21:22.133Z,56.40
2017-05-13T19:23:51.446Z,56.90
2017-05-13T19:26:20.502Z,57.00
2017-05-13T19:28:48.829Z,57.30
2017-05-13T19:31:17.158Z,57.80
2017-05-13T19:33:45.467Z,58.10
2017-05-13T19:36:16.509Z,58.70
2017-05-13T19:38:45.562Z,59.10
2017-05-13T19:41:13.878Z,59.90
2017-05-13T19:43:42.191Z,60.90
2017-05-13T19:46:10.493Z,62.00
2017-05-13T19:48:39.502Z,68.00
2017-05-13T19:51:07.821Z,66.90
2017-05-13T19:53:36.877Z,66.70
2017-05-13T19:56:05.210Z,67.00
2017-05-13T19:58:33.959Z,67.10
2017-05-13T20:01:02.270Z,67.40
2017-05-13T20:03:30.592Z,67.80
2017-05-13T20:05:58.893Z,67.80
2017-05-13T20:08:27.202Z,67.90
2017-05-13T20:10:55.710Z,68.30
2017-05-13T20:13:24.035Z,68.10
2017-05-13T20:15:53.156Z,68.00
2017-05-13T20:18:21.615Z,68.10
2017-05-13T20:20:49.955Z,68.40
2017-05-13T20:23:18.258Z,68.30
2017-05-13T20:25:50.849Z,68.60
2017-05-13T20:28:19.154Z,68.60
2017-05-13T20:30:47.465Z,68.60
2017-05-13T20:33:15.826Z,68.60
2017-05-13T20:35:45.693Z,68.90
2017-05-13T20:38:14.006Z,69.00
2017-05-13T20:40:42.314Z,69.30
2017-05-13T20:43:10.626Z,69.40
2017-05-13T20:45:38.944Z,69.50
2017-05-13T20:48:07.254Z,69.80
2017-05-13T20:50:35.602Z,70.10
2017-05-13T20:53:03.910Z,70.60
2017-05-13T20:55:32.213Z,70.70
2017-05-13T20:58:00.525Z,70.70
2017-05-13T21:00:28.833Z,70.70
2017-05-13T21:02:57.140Z,71.00
2017-05-13T21:05:25.457Z,71.10
2017-05-13T21:07:54.113Z,71.10
2017-05-13T21:10:22.421Z,71.00
2017-05-13T21:12:50.730Z,71.20
2017-05-13T21:15:19.038Z,71.40
2017-05-13T21:17:47.351Z,71.60
2017-05-13T21:20:16.093Z,71.60
2017-05-13T21:22:44.401Z,71.70
2017-05-13T21:25:13.602Z,71.90
2017-05-13T21:27:42.660Z,72.20
2017-05-13T21:30:10.973Z,72.30
2017-05-13T21:32:40.033Z,72.70
2017-05-13T21:35:08.346Z,72.70
2017-05-13T21:37:58.702Z,73.00
2017-05-13T21:40:27.378Z,73.00
2017-05-13T21:42:55.693Z,73.10
2017-05-13T21:45:24.015Z,73.70
2017-05-13T21:47:52.328Z,73.70
2017-05-13T21:50:20.639Z,73.90
2017-05-13T21:52:49.689Z,73.90
2017-05-13T21:55:18.637Z,74.30
2017-05-13T21:57:47.690Z,74.40
2017-05-13T22:00:16.001Z,74.50
2017-05-13T22:02:45.165Z,74.70
2017-05-13T22:05:13.482Z,74.80
2017-05-13T22:07:42.530Z,75.00
2017-05-13T22:10:10.858Z,75.30
2017-05-13T22:12:39.917Z,75.40
2017-05-13T22:15:08.231Z,75.40
2017-05-13T22:17:37.303Z,75.40
2017-05-13T22:20:05.717Z,75.40
2017-05-13T22:22:34.034Z,75.80
2017-05-13T22:25:02.346Z,75.60
2017-05-13T22:27:30.701Z,75.80
2017-05-13T22:29:59.014Z,76.00
2017-05-13T22:32:28.480Z,76.20
2017-05-13T22:34:56.794Z,76.30
2017-05-13T22:37:25.984Z,76.50
2017-05-13T22:39:54.298Z,76.60
2017-05-13T22:42:22.611Z,76.70
2017-05-13T22:44:51.332Z,76.90
2017-05-13T22:47:20.386Z,77.00
2017-05-13T22:49:48.698Z,77.20
2017-05-13T22:52:17.082Z,77.20
2017-05-13T22:54:46.143Z,78.30
2017-05-13T22:57:14.459Z,77.70
2017-05-13T22:59:42.778Z,77.80
2017-05-13T23:02:11.091Z,77.90
2017-05-13T23:04:39.406Z,77.80
2017-05-13T23:07:08.470Z,77.90
2017-05-13T23:09:36.787Z,78.00
2017-05-13T23:12:05.138Z,78.20
2017-05-13T23:14:33.785Z,78.20
2017-05-13T23:17:02.102Z,78.30
2017-05-13T23:19:30.423Z,78.40
2017-05-13T23:21:58.739Z,78.40
2017-05-13T23:24:27.057Z,78.40
2017-05-13T23:26:56.107Z,78.50
2017-05-13T23:29:24.428Z,78.50
2017-05-13T23:31:53.481Z,78.50
2017-05-13T23:34:21.807Z,78.70
2017-05-13T23:36:50.962Z,78.70
2017-05-13T23:39:19.519Z,78.90
2017-05-13T23:41:47.829Z,79.00
2017-05-13T23:44:16.169Z,79.10
2017-05-13T23:46:44.489Z,79.20
2017-05-13T23:49:13.189Z,79.20
2017-05-13T23:51:41.505Z,79.30
2017-05-13T23:54:09.818Z,79.30
2017-05-13T23:56:38.132Z,79.30
2017-05-13T23:59:07.182Z,79.30
